createdAt,value
2022-08-26T00:03:19.339Z,27.32
2022-08-26T00:08:21.027Z,27.31
2022-08-26T00:13:22.142Z,27.26
2022-08-26T00:18:23.530Z,27.14
2022-08-26T00:23:27.233Z,26.85
2022-08-26T00:28:30.996Z,26.61
2022-08-26T00:33:32.128Z,26.45
2022-08-26T00:38:35.285Z,26.38
2022-08-26T00:43:46.218Z,26.36
2022-08-26T00:48:53.136Z,26.36
2022-08-26T00:53:59.049Z,26.30
2022-08-26T00:59:05.842Z,26.20
2022-08-26T01:04:08.641Z,26.13
2022-08-26T01:09:09.893Z,26.12
2022-08-26T01:14:12.812Z,26.09
2022-08-26T01:19:36.717Z,26.11
2022-08-26T01:24:39.483Z,26.17
2022-08-26T01:29:43.614Z,26.17
2022-08-26T01:34:46.597Z,26.19
2022-08-26T01:39:53.023Z,26.25
2022-08-26T01:45:00.109Z,26.27
2022-08-26T01:50:06.805Z,26.14
2022-08-26T01:55:11.406Z,25.98
2022-08-26T02:00:13.714Z,25.93
2022-08-26T02:05:21.374Z,25.89
2022-08-26T02:10:23.435Z,25.81
2022-08-26T02:15:25.330Z,25.72
2022-08-26T02:20:26.865Z,25.53
2022-08-26T02:25:40.610Z,25.39
2022-08-26T02:30:42.681Z,25.46
2022-08-26T02:35:44.587Z,25.57
2022-08-26T02:40:45.859Z,25.59
2022-08-26T02:45:49.601Z,25.72
2022-08-26T02:50:51.029Z,25.73
2022-08-26T02:55:52.359Z,25.69
2022-08-26T03:00:53.801Z,25.67
2022-08-26T03:05:56.074Z,25.65
2022-08-26T03:10:57.239Z,25.59
2022-08-26T03:16:00.947Z,25.53
2022-08-26T03:21:14.640Z,25.55
2022-08-26T03:26:16.246Z,25.56
2022-08-26T03:31:17.639Z,25.56
2022-08-26T03:36:19.550Z,25.56
2022-08-26T03:41:21.029Z,25.39
2022-08-26T03:46:22.178Z,25.48
2022-08-26T03:51:23.355Z,25.62
2022-08-26T03:56:26.510Z,25.71
2022-08-26T04:01:29.035Z,25.70
2022-08-26T04:06:44.731Z,25.69
2022-08-26T04:11:47.496Z,25.77
2022-08-26T04:16:54.027Z,25.88
2022-08-26T04:21:56.789Z,25.89
2022-08-26T04:26:57.998Z,25.77
2022-08-26T04:31:59.223Z,25.36
2022-08-26T04:37:01.192Z,25.32
2022-08-26T04:42:02.394Z,25.34
2022-08-26T04:47:04.079Z,25.38
2022-08-26T04:52:05.452Z,25.45
2022-08-26T04:57:06.838Z,25.62
2022-08-26T05:02:08.085Z,25.62
2022-08-26T05:07:10.508Z,25.87
2022-08-26T05:12:11.645Z,26.11
2022-08-26T05:17:14.874Z,26.23
2022-08-26T05:22:16.677Z,26.53
2022-08-26T05:27:19.623Z,26.94
2022-08-26T05:32:20.847Z,27.28
2022-08-26T05:37:22.320Z,27.53
2022-08-26T05:42:23.545Z,27.80
2022-08-26T05:47:25.476Z,27.71
2022-08-26T05:52:26.694Z,29.03
2022-08-26T05:57:29.589Z,30.45
2022-08-26T06:02:30.942Z,31.16
2022-08-26T06:07:51.194Z,31.68
2022-08-26T06:12:52.364Z,32.03
2022-08-26T06:17:53.549Z,32.79
2022-08-26T06:23:13.325Z,32.83
2022-08-26T06:28:14.528Z,32.18
2022-08-26T06:33:16.146Z,30.49
2022-08-26T06:38:17.642Z,29.04
2022-08-26T06:43:24.448Z,28.18
2022-08-26T06:48:25.587Z,28.31
2022-08-26T06:53:28.059Z,29.16
2022-08-26T06:58:31.844Z,30.75
2022-08-26T07:03:34.963Z,31.95
2022-08-26T07:08:40.899Z,32.49
2022-08-26T07:13:42.426Z,32.63
2022-08-26T07:18:45.752Z,32.75
2022-08-26T07:23:48.160Z,32.73
2022-08-26T07:28:53.456Z,32.84
2022-08-26T07:33:54.920Z,33.03
2022-08-26T07:38:56.629Z,33.07
2022-08-26T07:43:57.868Z,32.86
2022-08-26T07:49:00.108Z,32.70
2022-08-26T07:54:01.331Z,32.31
2022-08-26T07:59:03.289Z,31.63
2022-08-26T08:04:17.179Z,30.66
2022-08-26T08:09:19.482Z,29.45
2022-08-26T08:14:23.446Z,28.66
2022-08-26T08:19:29.893Z,28.45
2022-08-26T08:24:40.270Z,28.23
2022-08-26T08:29:41.412Z,27.87
2022-08-26T08:39:44.846Z,27.80
2022-08-26T08:44:52.155Z,27.77
2022-08-26T08:49:59.551Z,27.65
2022-08-26T08:55:02.319Z,27.77
2022-08-26T09:00:21.653Z,28.06
2022-08-26T09:05:41.337Z,28.28
2022-08-26T09:10:51.480Z,28.36
2022-08-26T09:16:14.985Z,28.47
2022-08-26T09:21:19.271Z,28.68
2022-08-26T09:26:25.956Z,29.03
2022-08-26T09:31:36.216Z,29.38
2022-08-26T09:36:44.921Z,29.69
2022-08-26T09:42:02.750Z,30.17
2022-08-26T09:47:06.366Z,30.55
2022-08-26T09:52:27.076Z,30.67
2022-08-26T09:57:34.104Z,30.76
2022-08-26T10:02:40.847Z,30.96
2022-08-26T10:07:50.776Z,30.86
2022-08-26T10:13:02.688Z,30.80
2022-08-26T10:18:13.727Z,30.77
2022-08-26T10:23:17.810Z,31.00
2022-08-26T10:28:22.462Z,31.11
2022-08-26T10:33:24.647Z,31.10
2022-08-26T10:38:36.803Z,31.14
2022-08-26T10:43:54.351Z,31.18
2022-08-26T10:49:01.045Z,31.19
2022-08-26T10:54:13.920Z,31.15
2022-08-26T10:59:24.233Z,31.06
2022-08-26T11:04:48.871Z,30.89
2022-08-26T11:09:51.990Z,30.63
2022-08-26T11:14:58.869Z,30.55
2022-08-26T11:20:07.429Z,30.46
2022-08-26T11:25:15.549Z,30.28
2022-08-26T11:30:19.426Z,30.27
2022-08-26T11:35:20.966Z,30.30
2022-08-26T11:40:29.406Z,30.33
2022-08-26T11:45:38.498Z,30.39
2022-08-26T11:50:39.730Z,30.48
2022-08-26T11:55:44.072Z,30.59
2022-08-26T12:00:45.708Z,30.55
2022-08-26T12:05:51.244Z,30.43
2022-08-26T12:11:18.941Z,30.45
2022-08-26T12:16:24.751Z,30.60
2022-08-26T12:21:31.496Z,30.81
2022-08-26T12:26:36.373Z,30.94
2022-08-26T12:31:40.175Z,30.81
2022-08-26T12:36:48.040Z,30.57
2022-08-26T12:41:53.270Z,30.38
2022-08-26T12:47:03.312Z,30.35
2022-08-26T12:52:29.043Z,30.27
2022-08-26T12:57:34.478Z,30.21
2022-08-26T13:02:38.461Z,30.17
2022-08-26T13:07:40.547Z,30.18
2022-08-26T13:12:43.021Z,30.22
2022-08-26T13:17:44.208Z,30.24
2022-08-26T13:22:46.949Z,30.30
2022-08-26T13:27:59.635Z,30.44
2022-08-26T13:33:00.987Z,30.82
2022-08-26T13:38:04.190Z,31.26
2022-08-26T13:43:09.883Z,31.65
2022-08-26T13:48:11.443Z,31.93
2022-08-26T13:53:15.424Z,32.18
2022-08-26T13:58:16.645Z,32.33
2022-08-26T14:03:18.020Z,32.11
2022-08-26T14:08:21.566Z,31.85
2022-08-26T14:13:24.973Z,31.59
2022-08-26T14:18:42.039Z,31.26
2022-08-26T14:23:47.261Z,30.93
2022-08-26T14:28:50.979Z,30.61
2022-08-26T14:33:52.343Z,30.33
2022-08-26T14:39:01.096Z,30.27
2022-08-26T14:44:09.931Z,30.42
2022-08-26T14:49:11.891Z,30.57
2022-08-26T14:54:15.455Z,30.64
2022-08-26T14:59:28.423Z,30.69
2022-08-26T15:04:29.650Z,30.69
2022-08-26T15:09:34.303Z,30.69
2022-08-26T15:14:36.012Z,30.72
2022-08-26T15:19:38.301Z,30.75
2022-08-26T15:24:39.891Z,30.78
2022-08-26T15:29:41.070Z,30.78
2022-08-26T15:34:42.825Z,30.77
2022-08-26T15:39:44.033Z,30.73
2022-08-26T15:44:45.788Z,30.68
2022-08-26T15:49:47.408Z,30.67
2022-08-26T15:54:48.967Z,30.91
2022-08-26T15:59:51.852Z,30.96
2022-08-26T16:04:53.221Z,30.79
2022-08-26T16:09:56.648Z,30.60
2022-08-26T16:14:57.900Z,30.45
2022-08-26T16:19:59.580Z,30.29
2022-08-26T16:25:00.962Z,30.13
2022-08-26T16:30:06.403Z,29.95
2022-08-26T16:35:07.643Z,29.80
2022-08-26T16:40:09.815Z,29.65
2022-08-26T16:45:11.098Z,29.48
2022-08-26T16:50:12.799Z,29.32
2022-08-26T16:55:15.247Z,29.14
2022-08-26T17:00:27.334Z,28.94
2022-08-26T17:05:29.076Z,28.76
2022-08-26T17:10:30.892Z,28.62
2022-08-26T17:15:32.226Z,28.51
2022-08-26T17:20:33.540Z,28.34
2022-08-26T17:25:34.684Z,28.07
2022-08-26T17:30:37.213Z,27.72
2022-08-26T17:35:38.500Z,27.39
2022-08-26T17:40:39.846Z,27.08
2022-08-26T17:45:42.204Z,26.78
2022-08-26T17:50:43.495Z,26.55
2022-08-26T17:55:52.013Z,26.36
2022-08-26T18:00:54.106Z,26.20
2022-08-26T18:05:55.226Z,26.06
2022-08-26T18:10:57.437Z,25.93
2022-08-26T18:15:59.222Z,25.80
2022-08-26T18:21:03.218Z,25.67
2022-08-26T18:26:04.618Z,25.54
2022-08-26T18:31:08.379Z,25.42
2022-08-26T18:36:18.956Z,25.30
2022-08-26T18:41:23.219Z,25.20
2022-08-26T18:46:26.526Z,25.10
2022-08-26T18:51:30.422Z,25.00
2022-08-26T18:56:32.931Z,24.89
2022-08-26T19:01:36.160Z,24.81
2022-08-26T19:06:42.563Z,24.76
2022-08-26T19:11:44.678Z,24.67
2022-08-26T19:16:49.122Z,24.51
2022-08-26T19:21:52.459Z,24.36
2022-08-26T19:26:57.758Z,24.24
2022-08-26T19:31:59.458Z,24.13
2022-08-26T19:37:00.631Z,24.00
2022-08-26T19:42:01.803Z,23.89
2022-08-26T19:47:04.902Z,23.77
2022-08-26T19:52:06.658Z,23.64
2022-08-26T19:57:07.917Z,23.51
2022-08-26T20:02:11.292Z,23.40
2022-08-26T20:07:18.105Z,23.29
2022-08-26T20:12:20.147Z,23.19
2022-08-26T20:17:22.088Z,23.09
2022-08-26T20:22:24.011Z,22.99
2022-08-26T20:27:37.987Z,22.91
2022-08-26T20:32:41.009Z,22.80
2022-08-26T20:37:42.315Z,22.72
2022-08-26T20:42:44.955Z,22.61
2022-08-26T20:47:46.247Z,22.50
2022-08-26T20:52:47.416Z,22.39
2022-08-26T20:57:48.657Z,22.29
2022-08-26T21:02:49.920Z,22.19
2022-08-26T21:07:51.308Z,22.08
2022-08-26T21:12:52.656Z,21.98
2022-08-26T21:17:53.934Z,21.87
2022-08-26T21:22:55.341Z,21.78
2022-08-26T21:27:56.709Z,21.70
2022-08-26T21:48:17.208Z,23.59
2022-08-26T21:53:19.608Z,22.86
2022-08-26T21:58:20.872Z,22.42
2022-08-26T22:03:22.306Z,22.09
2022-08-26T22:08:23.499Z,21.82
2022-08-26T22:13:36.879Z,21.61
2022-08-26T22:18:40.265Z,21.96
2022-08-26T22:23:42.042Z,23.22
2022-08-26T22:28:43.505Z,24.04
2022-08-26T22:33:45.111Z,24.53
2022-08-26T22:38:46.970Z,24.45
2022-08-26T22:43:48.707Z,23.30
2022-08-26T22:48:53.754Z,22.55
2022-08-26T22:53:55.342Z,22.03
2022-08-26T22:58:56.574Z,22.13
2022-08-26T23:03:57.776Z,23.11
2022-08-26T23:08:59.204Z,22.98
2022-08-26T23:14:06.517Z,22.14
2022-08-26T23:19:11.085Z,21.62
2022-08-26T23:24:13.046Z,21.72
2022-08-26T23:29:15.112Z,22.68
2022-08-26T23:34:34.894Z,23.45
2022-08-26T23:39:36.432Z,23.83
2022-08-26T23:44:38.224Z,23.81
2022-08-26T23:49:39.986Z,23.85
2022-08-26T23:54:41.456Z,22.77
2022-08-26T23:59:42.759Z,21.98
